createdAt,value
2023-05-21T00:03:53.607Z,99531.53
2023-05-21T00:07:55.576Z,99536.81
2023-05-21T00:11:57.267Z,99531.53
2023-05-21T00:15:59.017Z,99524.03
2023-05-21T00:20:02.658Z,99527.66
2023-05-21T00:24:04.617Z,99511.84
2023-05-21T00:28:06.401Z,99520.75
2023-05-21T00:32:08.407Z,99506.31
2023-05-21T00:36:14.477Z,99507.97
2023-05-21T00:40:16.540Z,99502.72
2023-05-21T00:44:19.592Z,99499.13
2023-05-21T00:48:21.389Z,99492.72
2023-05-21T00:52:23.356Z,99496.34
2023-05-21T00:56:27.428Z,99498.00
2023-05-21T01:00:29.549Z,99493.28
2023-05-21T01:04:31.932Z,99489.66
2023-05-21T01:08:35.133Z,99484.13
2023-05-21T01:12:39.744Z,99486.03
2023-05-21T01:16:44.211Z,99469.94
2023-05-21T01:20:48.360Z,99474.94
2023-05-21T01:24:51.276Z,99465.75
2023-05-21T01:28:53.986Z,99463.25
2023-05-21T01:33:15.993Z,99463.25
2023-05-21T01:37:26.832Z,99469.38
2023-05-21T01:41:32.059Z,99458.91
2023-05-21T01:45:39.661Z,99453.88
2023-05-21T01:49:41.925Z,99454.75
2023-05-21T01:53:43.610Z,99457.28
2023-05-21T01:57:45.656Z,99455.09
2023-05-21T02:01:47.534Z,99450.38
2023-05-21T02:05:49.457Z,99447.06
2023-05-21T02:09:51.147Z,99443.22
2023-05-21T02:13:57.587Z,99446.56
2023-05-21T02:17:59.294Z,99444.38
2023-05-21T02:22:01.145Z,99449.09
2023-05-21T02:26:03.109Z,99451.56
2023-05-21T02:30:08.459Z,99448.78
2023-05-21T02:34:10.431Z,99446.56
2023-05-21T02:38:13.860Z,99440.72
2023-05-21T02:42:15.857Z,99447.06
2023-05-21T02:46:17.554Z,99445.66
2023-05-21T02:50:19.476Z,99448.16
2023-05-21T02:54:28.374Z,99439.03
2023-05-21T02:58:30.087Z,99451.75
2023-05-21T03:02:32.446Z,99447.63
2023-05-21T03:06:34.922Z,99452.03
2023-05-21T03:10:37.630Z,99444.03
2023-05-21T03:14:39.560Z,99450.16
2023-05-21T03:18:41.500Z,99437.69
2023-05-21T03:22:44.709Z,99441.59
2023-05-21T03:26:48.433Z,99434.44
2023-05-21T03:30:51.218Z,99434.41
2023-05-21T03:35:15.994Z,99422.56
2023-05-21T03:39:18.034Z,99427.00
2023-05-21T03:43:20.020Z,99427.31
2023-05-21T03:47:21.928Z,99423.44
2023-05-21T03:51:25.763Z,99431.47
2023-05-21T03:55:27.592Z,99432.88
2023-05-21T03:59:29.407Z,99433.44
2023-05-21T04:03:33.328Z,99439.53
2023-05-21T04:07:38.469Z,99431.78
2023-05-21T04:11:41.922Z,99433.16
2023-05-21T04:15:46.833Z,99435.88
2023-05-21T04:19:48.889Z,99434.50
2023-05-21T04:23:50.657Z,99438.38
2023-05-21T04:28:07.408Z,99442.47
2023-05-21T04:32:09.542Z,99442.47
2023-05-21T04:36:11.747Z,99452.72
2023-05-21T04:40:18.530Z,99454.06
2023-05-21T04:44:20.596Z,99454.88
2023-05-21T04:48:27.260Z,99455.97
2023-05-21T04:52:29.047Z,99451.50
2023-05-21T04:56:32.059Z,99453.13
2023-05-21T05:00:34.639Z,99464.19
2023-05-21T05:04:36.610Z,99448.09
2023-05-21T05:08:38.370Z,99448.34
2023-05-21T05:12:40.679Z,99449.19
2023-05-21T05:16:43.080Z,99454.44
2023-05-21T05:20:45.068Z,99452.22
2023-05-21T05:24:46.800Z,99448.53
2023-05-21T05:28:49.114Z,99450.13
2023-05-21T05:32:51.109Z,99449.22
2023-05-21T05:36:53.506Z,99454.94
2023-05-21T05:40:55.324Z,99451.47
2023-05-21T05:44:57.476Z,99442.44
2023-05-21T05:48:59.224Z,99443.06
2023-05-21T05:53:01.148Z,99445.63
2023-05-21T05:57:04.359Z,99443.13
2023-05-21T06:01:06.354Z,99451.13
2023-05-21T06:05:10.631Z,99446.13
2023-05-21T06:09:12.430Z,99435.31
2023-05-21T06:13:14.616Z,99440.75
2023-05-21T06:17:16.630Z,99443.19
2023-05-21T06:21:18.353Z,99448.72
2023-05-21T06:25:20.621Z,99449.19
2023-05-21T06:29:24.429Z,99447.34
2023-05-21T06:33:27.748Z,99449.94
2023-05-21T06:37:29.573Z,99445.25
2023-05-21T06:41:31.616Z,99444.94
2023-05-21T06:45:37.924Z,99448.34
2023-05-21T06:49:55.565Z,99448.78
2023-05-21T06:53:57.769Z,99452.28
2023-05-21T06:58:00.804Z,99453.34
2023-05-21T07:02:04.463Z,99459.75
2023-05-21T07:06:07.271Z,99458.31
2023-05-21T07:10:09.825Z,99457.06
2023-05-21T07:14:11.956Z,99458.28
2023-05-21T07:18:13.910Z,99454.56
2023-05-21T07:22:16.216Z,99459.00
2023-05-21T07:26:18.583Z,99460.03
2023-05-21T07:30:21.443Z,99458.25
2023-05-21T07:34:23.248Z,99455.69
2023-05-21T07:38:24.952Z,99456.59
2023-05-21T07:42:27.277Z,99453.59
2023-05-21T07:46:31.319Z,99452.31
2023-05-21T07:50:33.404Z,99441.88
2023-05-21T07:54:35.854Z,99443.56
2023-05-21T07:58:38.110Z,99446.06
2023-05-21T08:02:40.643Z,99448.06
2023-05-21T08:06:42.626Z,99457.59
2023-05-21T08:10:47.171Z,99446.03
2023-05-21T08:14:49.328Z,99452.44
2023-05-21T08:18:52.382Z,99449.69
2023-05-21T08:22:55.067Z,99453.50
2023-05-21T08:26:58.109Z,99449.94
2023-05-21T08:31:00.179Z,99446.69
2023-05-21T08:35:02.099Z,99453.72
2023-05-21T08:39:25.827Z,99449.78
2023-05-21T08:43:30.633Z,99445.69
2023-05-21T08:47:35.770Z,99444.75
2023-05-21T08:51:42.037Z,99447.94
2023-05-21T08:55:45.633Z,99446.81
2023-05-21T08:59:48.436Z,99453.59
2023-05-21T09:04:12.182Z,99445.09
2023-05-21T09:08:27.509Z,99453.56
2023-05-21T09:12:36.469Z,99445.41
2023-05-21T09:16:39.013Z,99442.88
2023-05-21T09:20:41.175Z,99446.72
2023-05-21T09:24:44.483Z,99441.13
2023-05-21T09:28:47.067Z,99440.81
2023-05-21T09:32:58.855Z,99446.84
2023-05-21T09:37:03.711Z,99445.91
2023-05-21T09:41:07.177Z,99430.41
2023-05-21T09:45:10.753Z,99433.63
2023-05-21T09:49:28.667Z,99432.31
2023-05-21T09:53:32.190Z,99438.44
2023-05-21T09:57:41.619Z,99446.25
2023-05-21T10:01:44.367Z,99436.25
2023-05-21T10:05:47.058Z,99439.06
2023-05-21T10:09:50.682Z,99434.31
2023-05-21T10:14:09.829Z,99430.31
2023-05-21T10:18:13.540Z,99429.75
2023-05-21T10:22:16.968Z,99433.59
2023-05-21T10:26:21.775Z,99420.34
2023-05-21T10:30:24.749Z,99421.28
2023-05-21T10:34:28.367Z,99418.41
2023-05-21T10:38:32.934Z,99414.38
2023-05-21T10:42:34.981Z,99421.16
2023-05-21T10:46:50.067Z,99411.47
2023-05-21T10:51:38.712Z,99404.19
2023-05-21T10:55:46.355Z,99409.47
2023-05-21T10:59:49.034Z,99397.91
2023-05-21T11:03:50.992Z,99405.41
2023-05-21T11:08:01.770Z,99395.97
2023-05-21T11:12:33.153Z,99396.78
2023-05-21T11:16:36.658Z,99390.16
2023-05-21T11:20:38.813Z,99390.44
2023-05-21T11:24:41.519Z,99387.44
2023-05-21T11:28:46.078Z,99382.53
2023-05-21T11:33:14.305Z,99379.03
2023-05-21T11:37:34.712Z,99380.06
2023-05-21T11:42:01.572Z,99373.19
2023-05-21T11:46:05.872Z,99374.19
2023-05-21T11:50:16.214Z,99381.38
2023-05-21T11:54:21.101Z,99371.34
2023-05-21T11:58:23.669Z,99368.81
2023-05-21T12:02:31.607Z,99366.97
2023-05-21T12:06:35.827Z,99368.97
2023-05-21T12:10:40.038Z,99359.44
2023-05-21T12:14:48.635Z,99357.25
2023-05-21T12:18:52.113Z,99360.56
2023-05-21T12:22:54.429Z,99353.56
2023-05-21T12:26:59.563Z,99371.50
2023-05-21T12:31:01.549Z,99360.91
2023-05-21T12:35:03.608Z,99355.91
2023-05-21T12:39:11.168Z,99349.91
2023-05-21T12:43:13.419Z,99346.34
2023-05-21T12:47:15.465Z,99348.47
2023-05-21T12:51:17.564Z,99346.16
2023-05-21T12:55:19.708Z,99346.38
2023-05-21T12:59:21.425Z,99341.69
2023-05-21T13:03:24.101Z,99340.94
2023-05-21T13:07:27.720Z,99331.63
2023-05-21T13:11:30.331Z,99338.75
2023-05-21T13:15:32.199Z,99344.03
2023-05-21T13:19:34.461Z,99325.94
2023-05-21T13:23:36.269Z,99327.91
2023-05-21T13:27:39.114Z,99336.03
2023-05-21T13:31:44.382Z,99327.00
2023-05-21T13:35:51.245Z,99320.31
2023-05-21T13:39:53.130Z,99330.53
2023-05-21T13:43:55.009Z,99327.09
2023-05-21T13:47:56.952Z,99315.22
2023-05-21T13:52:00.355Z,99314.94
2023-05-21T13:56:02.666Z,99316.81
2023-05-21T14:00:11.320Z,99318.47
2023-05-21T14:04:13.191Z,99319.00
2023-05-21T14:08:18.674Z,99315.06
2023-05-21T14:12:21.919Z,99318.84
2023-05-21T14:16:29.324Z,99320.41
2023-05-21T14:20:31.038Z,99320.06
2023-05-21T14:24:33.731Z,99311.88
2023-05-21T14:28:36.147Z,99309.38
2023-05-21T14:32:38.551Z,99315.25
2023-05-21T14:36:41.319Z,99315.78
2023-05-21T14:40:43.056Z,99321.09
2023-05-21T14:44:44.746Z,99319.16
2023-05-21T14:48:47.344Z,99319.34
2023-05-21T14:52:49.099Z,99317.75
2023-05-21T14:56:51.075Z,99319.75
2023-05-21T15:00:53.114Z,99319.72
2023-05-21T15:04:56.626Z,99305.34
2023-05-21T15:08:58.648Z,99306.94
2023-05-21T15:13:00.368Z,99311.66
2023-05-21T15:17:02.759Z,99312.34
2023-05-21T15:21:05.268Z,99302.38
2023-05-21T15:25:07.673Z,99295.66
2023-05-21T15:29:09.741Z,99297.16
2023-05-21T15:33:11.769Z,99296.38
2023-05-21T15:37:18.763Z,99291.88
2023-05-21T15:41:22.137Z,99293.00
2023-05-21T15:45:25.762Z,99298.53
2023-05-21T15:49:28.741Z,99290.63
2023-05-21T15:53:30.483Z,99292.47
2023-05-21T15:57:32.214Z,99288.34
2023-05-21T16:01:34.230Z,99287.44
2023-05-21T16:05:36.446Z,99284.97
2023-05-21T16:09:38.715Z,99292.88
2023-05-21T16:13:40.914Z,99287.94
2023-05-21T16:17:42.710Z,99293.47
2023-05-21T16:21:44.427Z,99295.44
2023-05-21T16:25:46.779Z,99291.59
2023-05-21T16:29:48.499Z,99303.56
2023-05-21T16:33:50.253Z,99293.59
2023-05-21T16:37:52.041Z,99294.81
2023-05-21T16:41:55.337Z,99299.25
2023-05-21T16:45:57.083Z,99295.97
2023-05-21T16:49:58.836Z,99293.03
2023-05-21T16:54:00.550Z,99298.66
2023-05-21T16:58:04.836Z,99290.25
2023-05-21T17:02:07.576Z,99295.63
2023-05-21T17:06:09.551Z,99297.53
2023-05-21T17:10:12.157Z,99298.94
2023-05-21T17:14:23.340Z,99304.03
2023-05-21T17:18:35.126Z,99297.16
2023-05-21T17:22:37.297Z,99298.03
2023-05-21T17:26:39.031Z,99306.16
2023-05-21T17:30:41.867Z,99306.69
2023-05-21T17:34:44.343Z,99306.97
2023-05-21T17:38:46.029Z,99308.34
2023-05-21T17:42:47.763Z,99309.84
2023-05-21T17:46:50.849Z,99312.41
2023-05-21T17:50:52.650Z,99312.44
2023-05-21T17:54:54.358Z,99314.56
2023-05-21T17:58:56.035Z,99311.72
2023-05-21T18:02:58.321Z,99311.22
2023-05-21T18:07:01.297Z,99309.03
2023-05-21T18:11:04.274Z,99314.97
2023-05-21T18:15:07.556Z,99305.19
2023-05-21T18:19:10.484Z,99307.47
2023-05-21T18:23:12.383Z,99310.19
2023-05-21T18:27:15.910Z,99303.78
2023-05-21T18:31:17.861Z,99314.66
2023-05-21T18:35:19.593Z,99310.97
2023-05-21T18:39:24.814Z,99312.97
2023-05-21T18:43:26.615Z,99306.78
2023-05-21T18:47:28.946Z,99300.91
2023-05-21T18:51:33.333Z,99306.88
2023-05-21T18:55:36.778Z,99313.47
2023-05-21T18:59:39.810Z,99314.09
2023-05-21T19:03:41.627Z,99313.88
2023-05-21T19:07:43.805Z,99315.56
2023-05-21T19:11:47.244Z,99309.31
2023-05-21T19:15:49.308Z,99314.72
2023-05-21T19:19:55.961Z,99312.69
2023-05-21T19:23:59.217Z,99313.94
2023-05-21T19:28:02.488Z,99320.09
2023-05-21T19:32:05.827Z,99319.47
2023-05-21T19:36:08.124Z,99326.91
2023-05-21T19:40:10.423Z,99337.63
2023-05-21T19:44:12.162Z,99341.59
2023-05-21T19:48:14.832Z,99336.00
2023-05-21T19:52:16.821Z,99340.13
2023-05-21T19:56:19.035Z,99333.72
2023-05-21T20:00:22.755Z,99343.59
2023-05-21T20:04:24.503Z,99347.34
2023-05-21T20:08:26.192Z,99344.41
2023-05-21T20:12:28.064Z,99347.34
2023-05-21T20:16:30.605Z,99339.44
2023-05-21T20:20:34.820Z,99339.13
2023-05-21T20:24:36.721Z,99344.34
2023-05-21T20:28:39.817Z,99345.66
2023-05-21T20:32:42.712Z,99337.91
2023-05-21T20:36:44.440Z,99344.16
2023-05-21T20:40:46.286Z,99338.41
2023-05-21T20:44:49.853Z,99335.91
2023-05-21T20:48:51.641Z,99328.81
2023-05-21T20:52:53.443Z,99325.53
2023-05-21T20:56:56.056Z,99325.34
2023-05-21T21:00:58.227Z,99328.47
2023-05-21T21:05:00.092Z,99338.84
2023-05-21T21:09:01.800Z,99338.84
2023-05-21T21:13:03.811Z,99338.22
2023-05-21T21:17:05.818Z,99343.81
2023-05-21T21:21:07.604Z,99336.22
2023-05-21T21:25:09.786Z,99339.03
2023-05-21T21:29:12.154Z,99340.84
2023-05-21T21:33:16.513Z,99343.63
2023-05-21T21:37:18.308Z,99337.19
2023-05-21T21:41:20.477Z,99334.38
2023-05-21T21:45:22.152Z,99335.25
2023-05-21T21:49:23.808Z,99336.38
2023-05-21T21:53:25.587Z,99336.38
2023-05-21T21:57:29.628Z,99336.38
2023-05-21T22:01:31.455Z,99335.84
2023-05-21T22:05:34.165Z,99332.06
2023-05-21T22:09:35.876Z,99333.38
2023-05-21T22:13:37.898Z,99335.50
2023-05-21T22:17:40.335Z,99331.19
2023-05-21T22:21:42.388Z,99329.00
2023-05-21T22:25:44.079Z,99331.78
2023-05-21T22:29:45.854Z,99331.69
2023-05-21T22:33:47.709Z,99326.91
2023-05-21T22:37:49.382Z,99322.41
2023-05-21T22:41:51.132Z,99333.22
2023-05-21T22:45:53.220Z,99329.72
2023-05-21T22:49:55.098Z,99331.00
2023-05-21T22:53:57.025Z,99327.22
2023-05-21T22:57:58.708Z,99327.97
2023-05-21T23:02:00.557Z,99337.28
2023-05-21T23:06:02.416Z,99319.84
2023-05-21T23:10:04.487Z,99324.13
2023-05-21T23:14:06.297Z,99328.38
2023-05-21T23:18:08.855Z,99321.03
2023-05-21T23:22:10.964Z,99320.28
2023-05-21T23:26:12.709Z,99323.91
2023-05-21T23:30:14.547Z,99328.41
2023-05-21T23:34:16.280Z,99331.53
2023-05-21T23:38:18.000Z,99333.44
2023-05-21T23:42:19.822Z,99337.94
2023-05-21T23:46:21.613Z,99348.59
2023-05-21T23:50:25.002Z,99342.50
2023-05-21T23:54:26.778Z,99342.09
2023-05-21T23:58:28.459Z,99344.28
